createdAt,value
2022-09-23T00:02:06.568Z,98890.63
2022-09-23T00:04:33.195Z,98888.72
2022-09-23T00:06:59.774Z,98881.19
2022-09-23T00:09:26.378Z,98887.00
2022-09-23T00:11:52.935Z,98878.56
2022-09-23T00:14:19.529Z,98877.53
2022-09-23T00:16:46.171Z,98888.56
2022-09-23T00:19:12.767Z,98890.63
2022-09-23T00:21:39.327Z,98895.59
2022-09-23T00:24:08.096Z,98891.00
2022-09-23T00:26:34.769Z,98887.00
2022-09-23T00:29:01.335Z,98888.91
2022-09-23T00:31:28.041Z,98885.81
2022-09-23T00:33:56.732Z,98879.94
2022-09-23T00:36:24.315Z,98880.13
2022-09-23T00:38:51.066Z,98874.22
2022-09-23T00:41:18.180Z,98873.69
2022-09-23T00:43:47.720Z,98861.44
2022-09-23T00:46:32.531Z,98859.44
2022-09-23T00:49:05.963Z,98851.44
2022-09-23T00:51:39.759Z,98855.63
2022-09-23T00:54:07.015Z,98849.19
2022-09-23T00:56:35.398Z,98855.63
2022-09-23T00:59:03.030Z,98850.28
2022-09-23T01:01:29.911Z,98844.03
2022-09-23T01:03:57.641Z,98840.94
2022-09-23T01:06:24.347Z,98843.38
2022-09-23T01:08:51.736Z,98844.28
2022-09-23T01:11:40.238Z,98845.47
2022-09-23T01:14:27.765Z,98838.88
2022-09-23T01:17:04.016Z,98837.06
2022-09-23T01:20:05.940Z,98836.34
2022-09-23T01:22:44.824Z,98834.25
2022-09-23T01:25:41.475Z,98833.34
2022-09-23T01:28:24.904Z,98828.19
2022-09-23T01:31:05.483Z,98827.34
2022-09-23T01:33:54.434Z,98821.72
2022-09-23T01:36:33.730Z,98829.00
2022-09-23T01:39:11.872Z,98824.56
2022-09-23T01:41:47.411Z,98826.00
2022-09-23T01:44:29.569Z,98820.84
2022-09-23T01:47:02.494Z,98828.25
2022-09-23T01:49:38.752Z,98820.38
2022-09-23T01:52:16.167Z,98815.94
2022-09-23T01:54:50.719Z,98810.50
2022-09-23T01:57:27.762Z,98808.34
2022-09-23T02:00:04.375Z,98812.94
2022-09-23T02:02:37.709Z,98820.88
2022-09-23T02:05:11.485Z,98820.22
2022-09-23T02:07:39.057Z,98813.94
2022-09-23T02:10:13.443Z,98817.47
2022-09-23T02:12:46.740Z,98820.81
2022-09-23T02:15:19.183Z,98814.19
2022-09-23T02:17:47.388Z,98824.28
2022-09-23T02:20:20.899Z,98818.97
2022-09-23T02:22:56.601Z,98824.13
2022-09-23T02:25:34.056Z,98825.78
2022-09-23T02:28:16.037Z,98829.03
2022-09-23T02:30:51.949Z,98823.81
2022-09-23T02:33:24.555Z,98820.03
2022-09-23T02:35:55.775Z,98818.38
2022-09-23T02:38:37.094Z,98816.06
2022-09-23T02:41:16.240Z,98816.91
2022-09-23T02:43:52.211Z,98812.72
2022-09-23T02:46:19.568Z,98816.69
2022-09-23T02:48:56.968Z,98813.69
2022-09-23T02:51:28.842Z,98804.75
2022-09-23T02:53:58.376Z,98812.88
2022-09-23T02:56:25.188Z,98805.81
2022-09-23T02:58:54.302Z,98803.66
2022-09-23T03:01:37.373Z,98802.44
2022-09-23T03:04:06.792Z,98799.88
2022-09-23T03:06:48.737Z,98801.06
2022-09-23T03:09:23.261Z,98808.59
2022-09-23T03:11:58.805Z,98815.38
2022-09-23T03:14:36.736Z,98805.22
2022-09-23T03:17:10.586Z,98803.56
2022-09-23T03:19:53.356Z,98797.25
2022-09-23T03:22:33.710Z,98799.69
2022-09-23T03:25:07.140Z,98806.50
2022-09-23T03:27:36.549Z,98800.72
2022-09-23T03:30:05.241Z,98799.53
2022-09-23T03:32:34.496Z,98805.34
2022-09-23T03:35:03.197Z,98804.69
2022-09-23T03:37:35.799Z,98795.13
2022-09-23T03:40:15.049Z,98800.41
2022-09-23T03:42:42.208Z,98797.31
2022-09-23T03:45:18.337Z,98803.09
2022-09-23T03:47:45.964Z,98796.53
2022-09-23T03:50:13.441Z,98797.25
2022-09-23T03:52:40.515Z,98792.59
2022-09-23T03:55:07.890Z,98784.66
2022-09-23T03:57:34.765Z,98790.66
2022-09-23T04:00:01.900Z,98787.88
2022-09-23T04:02:28.481Z,98788.09
2022-09-23T04:04:56.061Z,98786.53
2022-09-23T04:07:22.606Z,98784.50
2022-09-23T04:09:49.256Z,98789.03
2022-09-23T04:12:16.836Z,98779.63
2022-09-23T04:14:44.214Z,98779.19
2022-09-23T04:17:11.564Z,98785.19
2022-09-23T04:19:38.443Z,98782.91
2022-09-23T04:22:05.711Z,98782.66
2022-09-23T04:24:32.322Z,98789.25
2022-09-23T04:27:01.803Z,98783.72
2022-09-23T04:29:28.492Z,98781.34
2022-09-23T04:31:55.601Z,98777.59
2022-09-23T04:34:22.249Z,98773.44
2022-09-23T04:36:49.490Z,98775.59
2022-09-23T04:39:16.778Z,98767.97
2022-09-23T04:41:44.644Z,98774.75
2022-09-23T04:44:12.530Z,98784.03
2022-09-23T04:46:40.857Z,98782.31
2022-09-23T04:49:08.320Z,98781.22
2022-09-23T04:51:35.497Z,98785.78
2022-09-23T04:54:02.204Z,98789.28
2022-09-23T04:56:32.816Z,98789.81
2022-09-23T04:59:01.803Z,98783.22
2022-09-23T05:01:32.598Z,98794.31
2022-09-23T05:04:02.460Z,98794.91
2022-09-23T05:06:31.580Z,98788.28
2022-09-23T05:08:59.279Z,98790.34
2022-09-23T05:11:28.955Z,98786.63
2022-09-23T05:13:55.580Z,98791.19
2022-09-23T05:16:23.582Z,98790.53
2022-09-23T05:18:51.901Z,98786.13
2022-09-23T05:21:21.413Z,98787.81
2022-09-23T05:23:50.173Z,98803.06
2022-09-23T05:26:16.847Z,98794.00
2022-09-23T05:28:43.514Z,98800.53
2022-09-23T05:31:19.975Z,98799.25
2022-09-23T05:33:51.749Z,98800.25
2022-09-23T05:36:20.585Z,98814.56
2022-09-23T05:38:51.338Z,98805.59
2022-09-23T05:41:24.807Z,98801.41
2022-09-23T05:43:53.136Z,98805.47
2022-09-23T05:46:23.210Z,98806.34
2022-09-23T05:48:51.231Z,98806.44
2022-09-23T05:51:27.507Z,98814.63
2022-09-23T05:53:58.344Z,98807.31
2022-09-23T05:56:27.476Z,98813.50
2022-09-23T05:58:55.617Z,98814.88
2022-09-23T06:01:25.036Z,98814.69
2022-09-23T06:03:53.086Z,98821.19
2022-09-23T06:06:21.796Z,98818.38
2022-09-23T06:08:48.674Z,98821.50
2022-09-23T06:11:15.371Z,98815.38
2022-09-23T06:13:42.002Z,98825.69
2022-09-23T06:16:11.910Z,98823.50
2022-09-23T06:18:40.297Z,98820.97
2022-09-23T06:21:07.804Z,98813.72
2022-09-23T06:23:37.360Z,98810.25
2022-09-23T06:26:08.166Z,98824.75
2022-09-23T06:28:37.474Z,98825.69
2022-09-23T06:31:12.936Z,98816.94
2022-09-23T06:33:40.072Z,98816.66
2022-09-23T06:36:07.971Z,98819.69
2022-09-23T06:38:34.986Z,98821.09
2022-09-23T06:41:03.440Z,98822.16
2022-09-23T06:43:30.912Z,98826.19
2022-09-23T06:46:00.605Z,98819.13
2022-09-23T06:48:28.717Z,98817.59
2022-09-23T06:50:59.651Z,98820.75
2022-09-23T06:53:26.216Z,98827.75
2022-09-23T06:56:04.197Z,98823.56
2022-09-23T06:58:31.953Z,98820.72
2022-09-23T07:01:04.415Z,98815.97
2022-09-23T07:03:31.909Z,98817.34
2022-09-23T07:05:59.307Z,98814.03
2022-09-23T07:08:27.604Z,98817.53
2022-09-23T07:10:59.233Z,98817.84
2022-09-23T07:13:26.600Z,98821.28
2022-09-23T07:15:56.223Z,98825.72
2022-09-23T07:18:23.985Z,98814.09
2022-09-23T07:20:50.649Z,98814.94
2022-09-23T07:23:18.536Z,98816.38
2022-09-23T07:25:47.199Z,98813.84
2022-09-23T07:28:13.847Z,98820.41
2022-09-23T07:30:49.554Z,98824.03
2022-09-23T07:33:31.619Z,98820.88
2022-09-23T07:35:59.150Z,98814.97
2022-09-23T07:38:29.969Z,98811.34
2022-09-23T07:41:07.544Z,98812.91
2022-09-23T07:43:34.154Z,98816.69
2022-09-23T07:46:04.784Z,98812.94
2022-09-23T07:48:34.453Z,98818.25
2022-09-23T07:51:07.371Z,98818.41
2022-09-23T07:53:34.064Z,98820.34
2022-09-23T07:56:00.673Z,98827.78
2022-09-23T07:58:27.289Z,98825.81
2022-09-23T08:00:54.111Z,98824.66
2022-09-23T08:03:21.344Z,98823.91
2022-09-23T08:05:48.211Z,98824.38
2022-09-23T08:08:14.941Z,98818.31
2022-09-23T08:10:41.588Z,98827.22
2022-09-23T08:13:08.236Z,98823.56
2022-09-23T08:15:34.944Z,98822.34
2022-09-23T08:18:01.885Z,98816.22
2022-09-23T08:20:46.543Z,98816.00
2022-09-23T08:23:16.252Z,98812.50
2022-09-23T08:25:47.104Z,98805.94
2022-09-23T08:28:16.743Z,98797.34
2022-09-23T08:30:48.024Z,98791.19
2022-09-23T08:33:15.970Z,98789.31
2022-09-23T08:35:45.565Z,98795.78
2022-09-23T08:38:12.153Z,98801.38
2022-09-23T08:40:44.089Z,98798.38
2022-09-23T08:43:22.086Z,98791.63
2022-09-23T08:45:51.184Z,98785.13
2022-09-23T08:48:26.632Z,98774.69
2022-09-23T08:50:58.815Z,98780.00
2022-09-23T08:53:29.539Z,98775.16
2022-09-23T08:55:59.646Z,98772.25
2022-09-23T08:58:57.131Z,98779.78
2022-09-23T09:01:44.882Z,98775.81
2022-09-23T09:04:32.360Z,98772.56
2022-09-23T09:07:38.685Z,98776.09
2022-09-23T09:10:10.568Z,98782.66
2022-09-23T09:12:47.242Z,98773.59
2022-09-23T09:15:16.749Z,98779.16
2022-09-23T09:18:03.795Z,98774.22
2022-09-23T09:20:32.388Z,98770.44
2022-09-23T09:23:00.592Z,98765.63
2022-09-23T09:25:49.390Z,98762.66
2022-09-23T09:28:22.068Z,98762.66
2022-09-23T09:30:56.500Z,98757.81
2022-09-23T09:33:31.150Z,98755.31
2022-09-23T09:36:30.869Z,98754.66
2022-09-23T09:39:00.888Z,98751.06
2022-09-23T09:41:31.929Z,98744.38
2022-09-23T09:44:07.873Z,98738.94
2022-09-23T09:46:50.954Z,98751.91
2022-09-23T09:49:38.085Z,98739.22
2022-09-23T09:52:29.567Z,98745.44
2022-09-23T09:55:22.885Z,98737.94
2022-09-23T09:57:55.031Z,98730.75
2022-09-23T10:00:21.530Z,98719.44
2022-09-23T10:02:59.731Z,98719.03
2022-09-23T10:05:31.868Z,98715.69
2022-09-23T10:08:24.660Z,98717.41
2022-09-23T10:10:54.862Z,98716.97
2022-09-23T10:13:24.373Z,98715.53
2022-09-23T10:15:54.826Z,98707.97
2022-09-23T10:18:37.512Z,98706.00
2022-09-23T10:21:08.109Z,98705.25
2022-09-23T10:23:40.204Z,98701.72
2022-09-23T10:26:08.305Z,98709.44
2022-09-23T10:28:52.310Z,98709.31
2022-09-23T10:31:25.903Z,98706.59
2022-09-23T10:33:52.517Z,98691.31
2022-09-23T10:36:19.225Z,98696.06
2022-09-23T10:38:50.763Z,98686.13
2022-09-23T10:41:47.143Z,98682.81
2022-09-23T10:44:50.709Z,98679.44
2022-09-23T10:47:41.920Z,98670.28
2022-09-23T10:50:43.160Z,98678.53
2022-09-23T10:53:24.634Z,98669.72
2022-09-23T10:55:59.215Z,98666.69
2022-09-23T10:58:25.739Z,98655.06
2022-09-23T11:01:22.778Z,98648.91
2022-09-23T11:04:01.278Z,98649.06
2022-09-23T11:06:54.199Z,98641.88
2022-09-23T11:09:49.465Z,98645.09
2022-09-23T11:12:41.392Z,98646.88
2022-09-23T11:15:31.143Z,98643.25
2022-09-23T11:18:29.207Z,98635.03
2022-09-23T11:21:21.041Z,98631.44
2022-09-23T11:24:07.060Z,98622.22
2022-09-23T11:27:04.983Z,98624.22
2022-09-23T11:29:42.976Z,98622.78
2022-09-23T11:32:40.648Z,98619.19
2022-09-23T11:35:37.774Z,98613.97
2022-09-23T11:38:12.048Z,98609.69
2022-09-23T11:40:45.533Z,98606.78
2022-09-23T11:43:14.136Z,98602.91
2022-09-23T11:45:47.175Z,98592.84
2022-09-23T11:48:21.824Z,98592.84
2022-09-23T11:50:57.355Z,98587.69
2022-09-23T11:53:38.051Z,98581.28
2022-09-23T11:56:30.087Z,98589.16
2022-09-23T11:59:10.093Z,98575.38
2022-09-23T12:01:45.799Z,98577.19
2022-09-23T12:04:23.012Z,98566.94
2022-09-23T12:06:58.907Z,98566.41
2022-09-23T12:09:56.570Z,98562.09
2022-09-23T12:12:27.235Z,98559.59
2022-09-23T12:15:06.096Z,98557.75
2022-09-23T12:18:01.589Z,98559.28
2022-09-23T12:20:53.831Z,98561.47
2022-09-23T12:23:47.782Z,98568.97
2022-09-23T12:26:19.813Z,98560.56
2022-09-23T12:28:50.008Z,98556.44
2022-09-23T12:31:20.749Z,98558.41
2022-09-23T12:33:53.703Z,98555.25
2022-09-23T12:36:35.615Z,98554.75
2022-09-23T12:39:17.568Z,98541.66
2022-09-23T12:41:47.576Z,98548.66
2022-09-23T12:44:26.468Z,98545.41
2022-09-23T12:47:29.501Z,98538.19
2022-09-23T12:49:58.133Z,98532.56
2022-09-23T12:52:28.150Z,98529.34
2022-09-23T12:55:02.950Z,98525.25
2022-09-23T12:57:41.612Z,98519.38
2022-09-23T13:00:11.575Z,98513.78
2022-09-23T13:02:40.986Z,98518.13
2022-09-23T13:05:33.114Z,98511.47
2022-09-23T13:08:05.322Z,98514.69
2022-09-23T13:10:38.564Z,98504.22
2022-09-23T13:13:06.715Z,98500.47
2022-09-23T13:15:35.883Z,98493.50
2022-09-23T13:18:18.686Z,98496.66
2022-09-23T13:20:47.064Z,98493.25
2022-09-23T13:23:23.556Z,98481.47
2022-09-23T13:25:53.258Z,98480.41
2022-09-23T13:28:39.148Z,98467.31
2022-09-23T13:31:13.767Z,98465.16
2022-09-23T13:33:45.733Z,98466.25
2022-09-23T13:36:16.752Z,98463.56
2022-09-23T13:38:43.628Z,98455.00
2022-09-23T13:41:18.012Z,98450.75
2022-09-23T13:43:52.569Z,98448.84
2022-09-23T13:46:21.840Z,98452.03
2022-09-23T13:48:54.665Z,98437.63
2022-09-23T13:51:30.287Z,98441.88
2022-09-23T13:53:59.432Z,98437.88
2022-09-23T13:56:29.057Z,98443.47
2022-09-23T13:59:23.556Z,98437.31
2022-09-23T14:01:50.444Z,98430.34
2022-09-23T14:04:25.475Z,98430.38
2022-09-23T14:06:53.836Z,98425.00
2022-09-23T14:09:24.811Z,98424.47
2022-09-23T14:11:52.118Z,98431.72
2022-09-23T14:14:20.542Z,98429.84
2022-09-23T14:16:49.997Z,98425.28
2022-09-23T14:19:18.677Z,98419.66
2022-09-23T14:21:49.212Z,98423.13
2022-09-23T14:24:33.381Z,98423.91
2022-09-23T14:27:15.437Z,98420.44
2022-09-23T14:29:46.500Z,98413.22
2022-09-23T14:32:23.344Z,98414.03
2022-09-23T14:34:51.071Z,98406.00
2022-09-23T14:37:33.998Z,98407.09
2022-09-23T14:40:00.994Z,98399.03
2022-09-23T14:42:29.830Z,98393.69
2022-09-23T14:44:56.718Z,98393.16
2022-09-23T14:47:25.041Z,98391.28
2022-09-23T14:50:11.719Z,98394.50
2022-09-23T14:52:38.201Z,98395.31
2022-09-23T14:55:05.989Z,98391.53
2022-09-23T14:57:32.626Z,98392.59
2022-09-23T15:00:09.220Z,98392.34
2022-09-23T15:02:38.228Z,98386.44
2022-09-23T15:05:22.410Z,98384.88
2022-09-23T15:07:51.592Z,98379.22
2022-09-23T15:10:23.663Z,98383.28
2022-09-23T15:12:53.659Z,98375.78
2022-09-23T15:15:28.083Z,98374.44
2022-09-23T15:17:55.174Z,98378.16
2022-09-23T15:20:24.670Z,98377.91
2022-09-23T15:22:54.277Z,98386.72
2022-09-23T15:25:28.215Z,98377.34
2022-09-23T15:27:58.404Z,98377.34
2022-09-23T15:30:25.045Z,98375.50
2022-09-23T15:32:51.679Z,98385.91
2022-09-23T15:35:22.272Z,98377.84
2022-09-23T15:37:50.337Z,98378.66
2022-09-23T15:40:28.181Z,98374.38
2022-09-23T15:42:57.775Z,98373.53
2022-09-23T15:45:35.871Z,98374.31
2022-09-23T15:48:10.695Z,98370.81
2022-09-23T15:50:39.362Z,98363.03
2022-09-23T15:53:06.407Z,98372.91
2022-09-23T15:55:33.776Z,98365.91
2022-09-23T15:58:02.928Z,98367.72
2022-09-23T16:00:29.802Z,98360.41
2022-09-23T16:02:56.425Z,98363.56
2022-09-23T16:05:26.638Z,98356.84
2022-09-23T16:07:53.443Z,98362.13
2022-09-23T16:10:21.687Z,98351.66
2022-09-23T16:12:49.156Z,98350.28
2022-09-23T16:15:19.224Z,98353.47
2022-09-23T16:17:45.939Z,98345.66
2022-09-23T16:20:18.097Z,98344.03
2022-09-23T16:22:52.471Z,98351.00
2022-09-23T16:25:20.278Z,98351.22
2022-09-23T16:27:46.964Z,98347.94
2022-09-23T16:30:13.527Z,98349.16
2022-09-23T16:32:40.141Z,98348.00
2022-09-23T16:35:08.451Z,98355.84
2022-09-23T16:37:35.235Z,98353.91
2022-09-23T16:40:03.884Z,98358.94
2022-09-23T16:42:30.468Z,98361.47
2022-09-23T16:44:57.018Z,98361.66
2022-09-23T16:47:23.634Z,98352.44
2022-09-23T16:49:50.186Z,98364.44
2022-09-23T16:52:16.975Z,98353.63
2022-09-23T16:54:43.750Z,98362.25
2022-09-23T16:57:13.134Z,98359.78
2022-09-23T16:59:55.224Z,98356.41
2022-09-23T17:02:37.304Z,98358.91
2022-09-23T17:05:04.311Z,98357.81
2022-09-23T17:07:32.037Z,98359.91
2022-09-23T17:09:58.593Z,98364.50
2022-09-23T17:12:33.375Z,98361.47
2022-09-23T17:15:00.614Z,98364.22
2022-09-23T17:17:28.478Z,98361.41
2022-09-23T17:19:55.035Z,98363.19
2022-09-23T17:22:21.624Z,98361.56
2022-09-23T17:24:48.174Z,98361.63
2022-09-23T17:27:17.175Z,98362.03
2022-09-23T17:29:44.503Z,98357.22
2022-09-23T17:32:11.185Z,98361.34
2022-09-23T17:34:37.839Z,98358.09
2022-09-23T17:37:04.413Z,98359.88
2022-09-23T17:39:31.714Z,98355.50
2022-09-23T17:42:01.808Z,98356.13
2022-09-23T17:44:32.369Z,98358.22
2022-09-23T17:46:58.904Z,98361.50
2022-09-23T17:49:25.526Z,98361.88
2022-09-23T17:51:52.119Z,98358.25
2022-09-23T17:54:18.684Z,98350.97
2022-09-23T17:56:45.225Z,98358.69
2022-09-23T17:59:13.199Z,98365.50
2022-09-23T18:01:39.981Z,98370.16
2022-09-23T18:04:07.193Z,98372.34
2022-09-23T18:06:37.298Z,98380.53
2022-09-23T18:09:06.687Z,98371.44
2022-09-23T18:11:37.317Z,98373.25
2022-09-23T18:14:08.417Z,98368.44
2022-09-23T18:16:37.558Z,98368.56
2022-09-23T18:19:05.883Z,98367.97
2022-09-23T18:21:35.773Z,98359.22
2022-09-23T18:24:28.051Z,98359.81
2022-09-23T18:26:50.348Z,98368.66
2022-09-23T18:29:17.058Z,98364.00
2022-09-23T18:31:45.195Z,98366.66
2022-09-23T18:34:13.976Z,98369.75
2022-09-23T18:36:40.611Z,98370.91
2022-09-23T18:39:07.494Z,98368.25
2022-09-23T18:41:35.111Z,98374.13
2022-09-23T18:44:02.335Z,98377.28
2022-09-23T18:46:30.568Z,98377.28
2022-09-23T18:49:12.906Z,98382.34
2022-09-23T18:51:48.447Z,98380.97
2022-09-23T18:54:15.437Z,98375.88
2022-09-23T18:56:43.761Z,98377.28
2022-09-23T18:59:17.714Z,98374.38
2022-09-23T19:01:45.870Z,98373.94
2022-09-23T19:04:14.242Z,98379.50
2022-09-23T19:06:41.052Z,98376.38
2022-09-23T19:09:08.445Z,98381.91
2022-09-23T19:11:36.535Z,98381.09
2022-09-23T19:14:06.438Z,98378.88
2022-09-23T19:16:34.851Z,98377.72
2022-09-23T19:19:02.746Z,98381.50
2022-09-23T19:21:30.428Z,98385.97
2022-09-23T19:24:03.647Z,98384.31
2022-09-23T19:26:34.652Z,98388.44
2022-09-23T19:29:03.338Z,98385.28
2022-09-23T19:31:33.485Z,98385.66
2022-09-23T19:34:02.604Z,98388.63
2022-09-23T19:36:33.453Z,98389.56
2022-09-23T19:39:04.761Z,98391.94
2022-09-23T19:41:33.369Z,98392.25
2022-09-23T19:44:03.180Z,98389.75
2022-09-23T19:46:31.177Z,98390.25
2022-09-23T19:48:58.479Z,98392.59
2022-09-23T19:51:25.112Z,98386.84
2022-09-23T19:53:52.032Z,98382.34
2022-09-23T19:56:19.114Z,98381.09
2022-09-23T19:58:48.272Z,98374.19
2022-09-23T20:01:17.188Z,98385.41
2022-09-23T20:03:45.064Z,98383.94
2022-09-23T20:06:11.614Z,98384.16
2022-09-23T20:08:38.727Z,98382.63
2022-09-23T20:11:10.300Z,98377.78
2022-09-23T20:13:38.819Z,98379.75
2022-09-23T20:16:11.284Z,98388.63
2022-09-23T20:18:38.725Z,98377.19
2022-09-23T20:21:06.756Z,98373.94
2022-09-23T20:23:33.645Z,98380.22
2022-09-23T20:26:17.155Z,98382.53
2022-09-23T20:28:43.754Z,98382.75
2022-09-23T20:31:11.881Z,98377.53
2022-09-23T20:33:41.505Z,98387.59
2022-09-23T20:36:09.415Z,98386.47
2022-09-23T20:38:37.588Z,98390.84
2022-09-23T20:41:04.561Z,98374.66
2022-09-23T20:43:33.041Z,98380.22
2022-09-23T20:46:00.160Z,98386.44
2022-09-23T20:48:26.743Z,98382.19
2022-09-23T20:50:53.406Z,98378.91
2022-09-23T20:53:22.227Z,98376.44
2022-09-23T20:55:52.079Z,98376.59
2022-09-23T20:58:19.103Z,98374.19
2022-09-23T21:00:45.937Z,98373.06
2022-09-23T21:03:12.990Z,98371.44
2022-09-23T21:05:42.054Z,98369.19
2022-09-23T21:08:09.056Z,98370.47
2022-09-23T21:10:36.124Z,98357.16
2022-09-23T21:13:06.878Z,98360.38
2022-09-23T21:15:35.617Z,98357.00
2022-09-23T21:18:02.173Z,98357.84
2022-09-23T21:20:28.739Z,98365.38
2022-09-23T21:22:56.328Z,98361.88
2022-09-23T21:25:28.095Z,98360.56
2022-09-23T21:27:55.690Z,98355.69
2022-09-23T21:30:23.024Z,98357.22
2022-09-23T21:32:49.656Z,98357.66
2022-09-23T21:35:18.877Z,98361.16
2022-09-23T21:37:45.974Z,98354.41
2022-09-23T21:40:27.973Z,98365.47
2022-09-23T21:43:00.249Z,98364.75
2022-09-23T21:45:31.619Z,98355.97
2022-09-23T21:47:58.193Z,98357.44
2022-09-23T21:50:27.884Z,98354.25
2022-09-23T21:52:58.297Z,98360.50
2022-09-23T21:55:25.548Z,98360.25
2022-09-23T21:57:52.151Z,98363.25
2022-09-23T22:00:18.837Z,98365.75
2022-09-23T22:02:45.376Z,98359.84
2022-09-23T22:05:11.939Z,98355.44
2022-09-23T22:07:38.555Z,98355.19
2022-09-23T22:10:06.064Z,98362.16
2022-09-23T22:12:33.658Z,98356.81
2022-09-23T22:15:00.246Z,98359.25
2022-09-23T22:17:30.149Z,98356.47
2022-09-23T22:19:57.259Z,98351.19
2022-09-23T22:22:23.813Z,98355.13
2022-09-23T22:24:51.382Z,98359.00
2022-09-23T22:27:20.013Z,98353.22
2022-09-23T22:30:02.437Z,98353.31
2022-09-23T22:32:44.463Z,98361.84
2022-09-23T22:35:16.517Z,98359.06
2022-09-23T22:37:43.842Z,98357.84
2022-09-23T22:40:14.698Z,98367.78
2022-09-23T22:42:42.295Z,98361.84
2022-09-23T22:45:10.361Z,98369.63
2022-09-23T22:47:38.882Z,98358.88
2022-09-23T22:50:08.021Z,98363.50
2022-09-23T22:52:34.858Z,98354.63
2022-09-23T22:55:01.839Z,98352.16
2022-09-23T22:57:28.372Z,98360.34
2022-09-23T22:59:54.977Z,98356.03
2022-09-23T23:02:23.682Z,98357.16
2022-09-23T23:04:50.703Z,98355.13
2022-09-23T23:07:21.511Z,98353.56
2022-09-23T23:09:50.217Z,98355.53
2022-09-23T23:12:18.892Z,98356.41
2022-09-23T23:14:46.530Z,98355.81
2022-09-23T23:17:13.367Z,98355.06
2022-09-23T23:19:39.974Z,98348.41
2022-09-23T23:22:06.568Z,98344.56
2022-09-23T23:24:33.287Z,98347.38
2022-09-23T23:26:59.869Z,98350.19
2022-09-23T23:29:27.811Z,98342.22
2022-09-23T23:31:54.748Z,98349.22
2022-09-23T23:34:21.767Z,98343.72
2022-09-23T23:36:54.773Z,98339.22
2022-09-23T23:39:24.565Z,98343.28
2022-09-23T23:41:55.156Z,98339.34
2022-09-23T23:44:23.889Z,98337.41
2022-09-23T23:46:51.206Z,98339.41
2022-09-23T23:49:17.977Z,98334.78
2022-09-23T23:51:44.808Z,98340.50
2022-09-23T23:54:13.038Z,98333.06
2022-09-23T23:56:39.610Z,98335.75
2022-09-23T23:59:06.247Z,98338.16
